sensor_id;sensor_type;location;lat;lon;timestamp;temperature;humidity
37544;DHT22;23385;52.038;20.322;2022-10-16T00:00:41;14.50;99.90
37544;DHT22;23385;52.038;20.322;2022-10-16T00:03:09;14.40;99.90
37544;DHT22;23385;52.038;20.322;2022-10-16T00:05:41;14.50;99.90
37544;DHT22;23385;52.038;20.322;2022-10-16T00:08:11;14.50;99.90
37544;DHT22;23385;52.038;20.322;2022-10-16T00:10:37;14.40;99.90
37544;DHT22;23385;52.038;20.322;2022-10-16T00:13:04;14.40;99.90
37544;DHT22;23385;52.038;20.322;2022-10-16T00:15:33;14.40;99.90
37544;DHT22;23385;52.038;20.322;2022-10-16T00:18:02;14.40;99.90
37544;DHT22;23385;52.038;20.322;2022-10-16T00:20:28;14.40;99.90
37544;DHT22;23385;52.038;20.322;2022-10-16T00:22:54;14.40;99.90
37544;DHT22;23385;52.038;20.322;2022-10-16T00:25:20;14.40;99.90
37544;DHT22;23385;52.038;20.322;2022-10-16T00:27:46;14.40;99.90
37544;DHT22;23385;52.038;20.322;2022-10-16T00:30:12;14.40;99.90
37544;DHT22;23385;52.038;20.322;2022-10-16T00:32:38;14.40;99.90
37544;DHT22;23385;52.038;20.322;2022-10-16T00:35:04;14.40;99.90
37544;DHT22;23385;52.038;20.322;2022-10-16T00:37:34;14.40;99.90
37544;DHT22;23385;52.038;20.322;2022-10-16T00:40:01;14.40;99.90
37544;DHT22;23385;52.038;20.322;2022-10-16T00:42:26;14.40;99.90
37544;DHT22;23385;52.038;20.322;2022-10-16T00:44:55;14.40;99.90
37544;DHT22;23385;52.038;20.322;2022-10-16T00:47:29;14.40;99.90
37544;DHT22;23385;52.038;20.322;2022-10-16T00:50:33;14.40;99.90
37544;DHT22;23385;52.038;20.322;2022-10-16T00:52:52;14.30;99.90
37544;DHT22;23385;52.038;20.322;2022-10-16T00:55:20;14.30;99.90
37544;DHT22;23385;52.038;20.322;2022-10-16T00:57:48;14.30;99.90
37544;DHT22;23385;52.038;20.322;2022-10-16T01:00:21;14.30;99.90
37544;DHT22;23385;52.038;20.322;2022-10-16T01:02:57;14.30;99.90
37544;DHT22;23385;52.038;20.322;2022-10-16T01:05:30;14.30;99.90
37544;DHT22;23385;52.038;20.322;2022-10-16T01:08:13;14.30;99.90
37544;DHT22;23385;52.038;20.322;2022-10-16T01:11:10;14.20;99.90
37544;DHT22;23385;52.038;20.322;2022-10-16T01:13:41;14.20;99.90
37544;DHT22;23385;52.038;20.322;2022-10-16T01:16:16;14.20;99.90
37544;DHT22;23385;52.038;20.322;2022-10-16T01:18:47;14.20;99.90
37544;DHT22;23385;52.038;20.322;2022-10-16T01:21:30;14.10;99.90
37544;DHT22;23385;52.038;20.322;2022-10-16T01:30:04;14.10;99.90
37544;DHT22;23385;52.038;20.322;2022-10-16T01:32:46;14.00;99.90
37544;DHT22;23385;52.038;20.322;2022-10-16T01:35:26;14.00;99.90
37544;DHT22;23385;52.038;20.322;2022-10-16T01:38:16;14.00;99.90
37544;DHT22;23385;52.038;20.322;2022-10-16T01:40:49;14.00;99.90
37544;DHT22;23385;52.038;20.322;2022-10-16T01:43:19;14.00;99.90
37544;DHT22;23385;52.038;20.322;2022-10-16T01:45:46;14.00;99.90
37544;DHT22;23385;52.038;20.322;2022-10-16T01:48:15;14.00;99.90
37544;DHT22;23385;52.038;20.322;2022-10-16T01:50:44;13.90;99.90
37544;DHT22;23385;52.038;20.322;2022-10-16T01:53:14;13.90;99.90
37544;DHT22;23385;52.038;20.322;2022-10-16T01:55:46;13.90;99.90
37544;DHT22;23385;52.038;20.322;2022-10-16T01:58:13;13.80;99.90
37544;DHT22;23385;52.038;20.322;2022-10-16T02:00:42;13.80;99.90
37544;DHT22;23385;52.038;20.322;2022-10-16T02:03:11;13.70;99.90
37544;DHT22;23385;52.038;20.322;2022-10-16T02:05:50;13.70;99.90
37544;DHT22;23385;52.038;20.322;2022-10-16T02:08:17;13.60;99.90
37544;DHT22;23385;52.038;20.322;2022-10-16T02:10:43;13.50;99.90
37544;DHT22;23385;52.038;20.322;2022-10-16T02:18:21;13.40;99.90
37544;DHT22;23385;52.038;20.322;2022-10-16T02:20:59;13.40;99.90
37544;DHT22;23385;52.038;20.322;2022-10-16T02:23:50;13.30;99.90
37544;DHT22;23385;52.038;20.322;2022-10-16T02:26:28;13.30;99.90
37544;DHT22;23385;52.038;20.322;2022-10-16T02:29:00;13.30;99.90
37544;DHT22;23385;52.038;20.322;2022-10-16T02:31:28;13.30;99.90
37544;DHT22;23385;52.038;20.322;2022-10-16T02:33:58;13.30;99.90
37544;DHT22;23385;52.038;20.322;2022-10-16T02:36:25;13.30;99.90
37544;DHT22;23385;52.038;20.322;2022-10-16T02:38:52;13.40;99.90
37544;DHT22;23385;52.038;20.322;2022-10-16T02:41:20;13.40;99.90
37544;DHT22;23385;52.038;20.322;2022-10-16T02:43:47;13.40;99.90
37544;DHT22;23385;52.038;20.322;2022-10-16T02:46:12;13.30;99.90
37544;DHT22;23385;52.038;20.322;2022-10-16T02:48:38;13.30;99.90
37544;DHT22;23385;52.038;20.322;2022-10-16T02:51:04;13.30;99.90
37544;DHT22;23385;52.038;20.322;2022-10-16T02:53:30;13.20;99.90
37544;DHT22;23385;52.038;20.322;2022-10-16T02:55:57;13.20;99.90
37544;DHT22;23385;52.038;20.322;2022-10-16T02:58:23;13.10;99.90
37544;DHT22;23385;52.038;20.322;2022-10-16T03:00:48;13.00;99.90
37544;DHT22;23385;52.038;20.322;2022-10-16T03:03:16;13.00;99.90
37544;DHT22;23385;52.038;20.322;2022-10-16T03:05:43;12.90;99.90
37544;DHT22;23385;52.038;20.322;2022-10-16T03:08:11;12.80;99.90
37544;DHT22;23385;52.038;20.322;2022-10-16T03:10:37;12.70;99.90
37544;DHT22;23385;52.038;20.322;2022-10-16T03:13:04;12.60;99.90
37544;DHT22;23385;52.038;20.322;2022-10-16T03:15:31;12.60;99.90
37544;DHT22;23385;52.038;20.322;2022-10-16T03:17:58;12.50;99.90
37544;DHT22;23385;52.038;20.322;2022-10-16T03:20:24;12.40;99.90
37544;DHT22;23385;52.038;20.322;2022-10-16T03:22:50;12.30;99.90
37544;DHT22;23385;52.038;20.322;2022-10-16T03:25:17;12.20;99.90
37544;DHT22;23385;52.038;20.322;2022-10-16T03:27:43;12.20;99.90
37544;DHT22;23385;52.038;20.322;2022-10-16T03:30:09;12.10;99.90
37544;DHT22;23385;52.038;20.322;2022-10-16T03:32:36;12.10;99.90
37544;DHT22;23385;52.038;20.322;2022-10-16T03:35:04;12.00;99.90
37544;DHT22;23385;52.038;20.322;2022-10-16T03:37:31;12.00;99.90
37544;DHT22;23385;52.038;20.322;2022-10-16T03:39:56;11.90;99.90
37544;DHT22;23385;52.038;20.322;2022-10-16T03:42:22;11.90;99.90
37544;DHT22;23385;52.038;20.322;2022-10-16T03:44:48;11.80;99.90
37544;DHT22;23385;52.038;20.322;2022-10-16T03:47:14;11.80;99.90
37544;DHT22;23385;52.038;20.322;2022-10-16T03:49:39;11.70;99.90
37544;DHT22;23385;52.038;20.322;2022-10-16T03:52:06;11.70;99.90
37544;DHT22;23385;52.038;20.322;2022-10-16T03:54:33;11.70;99.90
37544;DHT22;23385;52.038;20.322;2022-10-16T03:56:59;11.70;99.90
37544;DHT22;23385;52.038;20.322;2022-10-16T03:59:26;11.60;99.90
37544;DHT22;23385;52.038;20.322;2022-10-16T04:01:52;11.60;99.90
37544;DHT22;23385;52.038;20.322;2022-10-16T04:04:18;11.60;99.90
37544;DHT22;23385;52.038;20.322;2022-10-16T04:06:44;11.60;99.90
37544;DHT22;23385;52.038;20.322;2022-10-16T04:09:10;11.60;99.90
37544;DHT22;23385;52.038;20.322;2022-10-16T04:11:36;11.60;99.90
37544;DHT22;23385;52.038;20.322;2022-10-16T04:14:05;11.60;99.90
37544;DHT22;23385;52.038;20.322;2022-10-16T04:16:32;11.60;99.90
37544;DHT22;23385;52.038;20.322;2022-10-16T04:18:59;11.60;99.90
37544;DHT22;23385;52.038;20.322;2022-10-16T04:21:26;11.60;99.90
37544;DHT22;23385;52.038;20.322;2022-10-16T04:23:51;11.60;99.90
37544;DHT22;23385;52.038;20.322;2022-10-16T04:26:18;11.60;99.90
37544;DHT22;23385;52.038;20.322;2022-10-16T04:28:43;11.60;99.90
37544;DHT22;23385;52.038;20.322;2022-10-16T04:31:09;11.50;99.90
37544;DHT22;23385;52.038;20.322;2022-10-16T04:33:36;11.40;99.90
37544;DHT22;23385;52.038;20.322;2022-10-16T04:36:03;11.40;99.90
37544;DHT22;23385;52.038;20.322;2022-10-16T04:38:29;11.30;99.90
37544;DHT22;23385;52.038;20.322;2022-10-16T04:40:55;11.30;99.90
37544;DHT22;23385;52.038;20.322;2022-10-16T04:43:22;11.30;99.90
37544;DHT22;23385;52.038;20.322;2022-10-16T04:45:48;11.20;99.90
37544;DHT22;23385;52.038;20.322;2022-10-16T04:48:16;11.10;99.90
37544;DHT22;23385;52.038;20.322;2022-10-16T04:50:43;11.10;99.90
37544;DHT22;23385;52.038;20.322;2022-10-16T04:53:10;11.10;99.90
37544;DHT22;23385;52.038;20.322;2022-10-16T04:55:37;11.10;99.90
37544;DHT22;23385;52.038;20.322;2022-10-16T04:58:03;11.10;99.90
37544;DHT22;23385;52.038;20.322;2022-10-16T05:00:31;11.00;99.90
37544;DHT22;23385;52.038;20.322;2022-10-16T05:02:57;11.10;99.90
37544;DHT22;23385;52.038;20.322;2022-10-16T05:05:25;11.00;99.90
37544;DHT22;23385;52.038;20.322;2022-10-16T05:07:52;11.00;99.90
37544;DHT22;23385;52.038;20.322;2022-10-16T05:10:17;11.00;99.90
37544;DHT22;23385;52.038;20.322;2022-10-16T05:12:44;11.00;99.90
37544;DHT22;23385;52.038;20.322;2022-10-16T05:15:10;11.00;99.90
37544;DHT22;23385;52.038;20.322;2022-10-16T05:17:36;11.00;99.90
37544;DHT22;23385;52.038;20.322;2022-10-16T05:20:02;11.00;99.90
37544;DHT22;23385;52.038;20.322;2022-10-16T05:22:28;11.00;99.90
37544;DHT22;23385;52.038;20.322;2022-10-16T05:24:55;11.10;99.90
37544;DHT22;23385;52.038;20.322;2022-10-16T05:27:23;11.10;99.90
37544;DHT22;23385;52.038;20.322;2022-10-16T05:29:49;11.10;99.90
37544;DHT22;23385;52.038;20.322;2022-10-16T05:32:15;11.10;99.90
37544;DHT22;23385;52.038;20.322;2022-10-16T05:34:42;11.10;99.90
37544;DHT22;23385;52.038;20.322;2022-10-16T05:37:09;11.20;99.90
37544;DHT22;23385;52.038;20.322;2022-10-16T05:39:35;11.20;99.90
37544;DHT22;23385;52.038;20.322;2022-10-16T05:42:02;11.30;99.90
37544;DHT22;23385;52.038;20.322;2022-10-16T05:44:28;11.40;99.90
37544;DHT22;23385;52.038;20.322;2022-10-16T05:46:55;11.50;99.90
37544;DHT22;23385;52.038;20.322;2022-10-16T05:49:21;11.50;99.90
37544;DHT22;23385;52.038;20.322;2022-10-16T05:51:48;11.60;99.90
37544;DHT22;23385;52.038;20.322;2022-10-16T05:54:14;11.70;99.90
37544;DHT22;23385;52.038;20.322;2022-10-16T05:56:40;11.80;99.90
37544;DHT22;23385;52.038;20.322;2022-10-16T05:59:06;11.80;99.90
37544;DHT22;23385;52.038;20.322;2022-10-16T06:01:32;11.90;99.90
37544;DHT22;23385;52.038;20.322;2022-10-16T06:03:58;12.00;99.90
37544;DHT22;23385;52.038;20.322;2022-10-16T06:06:26;12.00;99.90
37544;DHT22;23385;52.038;20.322;2022-10-16T06:08:54;12.10;99.90
37544;DHT22;23385;52.038;20.322;2022-10-16T06:11:26;12.20;99.90
37544;DHT22;23385;52.038;20.322;2022-10-16T06:13:54;12.20;99.90
37544;DHT22;23385;52.038;20.322;2022-10-16T06:16:22;12.30;99.90
37544;DHT22;23385;52.038;20.322;2022-10-16T06:18:50;12.40;99.90
37544;DHT22;23385;52.038;20.322;2022-10-16T06:21:21;12.40;99.90
37544;DHT22;23385;52.038;20.322;2022-10-16T06:23:47;12.50;99.90
37544;DHT22;23385;52.038;20.322;2022-10-16T06:26:16;12.60;99.90
37544;DHT22;23385;52.038;20.322;2022-10-16T06:28:42;12.60;99.90
37544;DHT22;23385;52.038;20.322;2022-10-16T06:31:10;12.70;99.90
37544;DHT22;23385;52.038;20.322;2022-10-16T06:33:37;12.80;99.90
37544;DHT22;23385;52.038;20.322;2022-10-16T06:36:06;12.90;99.90
37544;DHT22;23385;52.038;20.322;2022-10-16T06:38:32;12.90;99.90
37544;DHT22;23385;52.038;20.322;2022-10-16T06:41:00;13.00;99.90
37544;DHT22;23385;52.038;20.322;2022-10-16T06:43:26;13.10;99.90
37544;DHT22;23385;52.038;20.322;2022-10-16T06:45:53;13.20;99.90
37544;DHT22;23385;52.038;20.322;2022-10-16T06:48:20;13.30;99.90
37544;DHT22;23385;52.038;20.322;2022-10-16T06:51:10;13.40;99.90
37544;DHT22;23385;52.038;20.322;2022-10-16T06:53:38;13.60;99.90
37544;DHT22;23385;52.038;20.322;2022-10-16T06:56:13;13.80;99.90
37544;DHT22;23385;52.038;20.322;2022-10-16T06:58:40;14.00;99.90
37544;DHT22;23385;52.038;20.322;2022-10-16T07:01:07;14.10;99.90
37544;DHT22;23385;52.038;20.322;2022-10-16T07:03:35;14.30;99.90
37544;DHT22;23385;52.038;20.322;2022-10-16T07:06:09;14.50;99.90
37544;DHT22;23385;52.038;20.322;2022-10-16T07:08:38;14.70;99.90
37544;DHT22;23385;52.038;20.322;2022-10-16T07:11:06;14.90;99.90
37544;DHT22;23385;52.038;20.322;2022-10-16T07:13:39;15.20;99.90
37544;DHT22;23385;52.038;20.322;2022-10-16T07:16:07;15.30;99.90
37544;DHT22;23385;52.038;20.322;2022-10-16T07:18:35;15.50;99.90
37544;DHT22;23385;52.038;20.322;2022-10-16T07:21:06;15.70;99.90
37544;DHT22;23385;52.038;20.322;2022-10-16T07:23:33;15.70;99.90
37544;DHT22;23385;52.038;20.322;2022-10-16T07:26:25;15.80;99.90
37544;DHT22;23385;52.038;20.322;2022-10-16T07:28:51;15.80;99.90
37544;DHT22;23385;52.038;20.322;2022-10-16T07:31:19;16.00;99.90
37544;DHT22;23385;52.038;20.322;2022-10-16T07:33:46;16.20;99.90
37544;DHT22;23385;52.038;20.322;2022-10-16T07:36:16;16.30;99.90
37544;DHT22;23385;52.038;20.322;2022-10-16T07:38:51;16.40;99.90
37544;DHT22;23385;52.038;20.322;2022-10-16T07:41:19;16.50;99.90
37544;DHT22;23385;52.038;20.322;2022-10-16T07:43:47;16.50;99.90
37544;DHT22;23385;52.038;20.322;2022-10-16T07:46:14;16.70;99.90
37544;DHT22;23385;52.038;20.322;2022-10-16T07:48:40;16.90;99.90
37544;DHT22;23385;52.038;20.322;2022-10-16T07:51:11;17.10;99.90
37544;DHT22;23385;52.038;20.322;2022-10-16T07:53:39;17.10;99.90
37544;DHT22;23385;52.038;20.322;2022-10-16T07:56:06;17.20;99.90
37544;DHT22;23385;52.038;20.322;2022-10-16T07:58:35;17.30;99.90
37544;DHT22;23385;52.038;20.322;2022-10-16T08:01:09;17.30;99.90
37544;DHT22;23385;52.038;20.322;2022-10-16T08:03:37;17.20;99.90
37544;DHT22;23385;52.038;20.322;2022-10-16T08:06:05;17.10;99.90
37544;DHT22;23385;52.038;20.322;2022-10-16T08:08:31;17.10;99.90
37544;DHT22;23385;52.038;20.322;2022-10-16T08:10:58;17.00;99.90
37544;DHT22;23385;52.038;20.322;2022-10-16T08:13:24;17.00;99.90
37544;DHT22;23385;52.038;20.322;2022-10-16T08:15:53;17.10;99.90
37544;DHT22;23385;52.038;20.322;2022-10-16T08:18:19;17.10;99.90
37544;DHT22;23385;52.038;20.322;2022-10-16T08:20:45;17.10;99.90
37544;DHT22;23385;52.038;20.322;2022-10-16T08:23:13;17.10;99.90
37544;DHT22;23385;52.038;20.322;2022-10-16T08:25:40;17.00;99.90
37544;DHT22;23385;52.038;20.322;2022-10-16T08:28:08;17.00;99.90
37544;DHT22;23385;52.038;20.322;2022-10-16T08:30:35;17.00;99.90
37544;DHT22;23385;52.038;20.322;2022-10-16T08:33:02;17.10;99.90
37544;DHT22;23385;52.038;20.322;2022-10-16T08:35:35;17.00;99.90
37544;DHT22;23385;52.038;20.322;2022-10-16T08:38:05;17.00;99.90
37544;DHT22;23385;52.038;20.322;2022-10-16T08:40:43;17.10;99.90
37544;DHT22;23385;52.038;20.322;2022-10-16T08:48:53;17.10;99.90
37544;DHT22;23385;52.038;20.322;2022-10-16T08:51:32;17.20;99.90
37544;DHT22;23385;52.038;20.322;2022-10-16T08:54:26;17.20;99.90
37544;DHT22;23385;52.038;20.322;2022-10-16T08:57:00;17.30;99.90
37544;DHT22;23385;52.038;20.322;2022-10-16T08:59:32;17.40;99.90
37544;DHT22;23385;52.038;20.322;2022-10-16T09:01:58;17.50;99.90
37544;DHT22;23385;52.038;20.322;2022-10-16T09:04:48;17.60;99.90
37544;DHT22;23385;52.038;20.322;2022-10-16T09:10:57;17.80;99.90
37544;DHT22;23385;52.038;20.322;2022-10-16T09:13:55;17.80;99.90
37544;DHT22;23385;52.038;20.322;2022-10-16T09:19:12;17.80;99.90
37544;DHT22;23385;52.038;20.322;2022-10-16T09:21:47;17.90;99.90
37544;DHT22;23385;52.038;20.322;2022-10-16T09:24:25;18.00;99.90
37544;DHT22;23385;52.038;20.322;2022-10-16T09:26:51;18.10;99.90
37544;DHT22;23385;52.038;20.322;2022-10-16T09:29:22;18.20;99.90
37544;DHT22;23385;52.038;20.322;2022-10-16T09:31:51;18.20;99.90
37544;DHT22;23385;52.038;20.322;2022-10-16T09:34:35;18.30;99.90
37544;DHT22;23385;52.038;20.322;2022-10-16T09:37:12;18.30;99.90
37544;DHT22;23385;52.038;20.322;2022-10-16T09:40:05;18.30;99.90
37544;DHT22;23385;52.038;20.322;2022-10-16T09:42:33;18.40;99.90
37544;DHT22;23385;52.038;20.322;2022-10-16T09:45:03;18.40;99.90
37544;DHT22;23385;52.038;20.322;2022-10-16T09:47:30;18.60;99.90
37544;DHT22;23385;52.038;20.322;2022-10-16T09:50:26;18.70;99.90
37544;DHT22;23385;52.038;20.322;2022-10-16T09:53:44;18.90;99.90
37544;DHT22;23385;52.038;20.322;2022-10-16T09:56:12;19.20;99.90
37544;DHT22;23385;52.038;20.322;2022-10-16T09:58:50;19.30;99.90
37544;DHT22;23385;52.038;20.322;2022-10-16T10:01:17;19.50;99.90
37544;DHT22;23385;52.038;20.322;2022-10-16T10:03:45;19.70;99.90
37544;DHT22;23385;52.038;20.322;2022-10-16T10:06:25;19.80;99.90
37544;DHT22;23385;52.038;20.322;2022-10-16T10:09:01;19.80;99.90
37544;DHT22;23385;52.038;20.322;2022-10-16T10:11:53;19.90;99.90
37544;DHT22;23385;52.038;20.322;2022-10-16T10:17:26;19.80;99.90
37544;DHT22;23385;52.038;20.322;2022-10-16T10:19:58;19.80;99.90
37544;DHT22;23385;52.038;20.322;2022-10-16T10:22:38;19.70;99.90
37544;DHT22;23385;52.038;20.322;2022-10-16T10:34:16;20.00;99.90
37544;DHT22;23385;52.038;20.322;2022-10-16T10:36:52;20.10;99.90
37544;DHT22;23385;52.038;20.322;2022-10-16T10:39:30;20.10;99.90
37544;DHT22;23385;52.038;20.322;2022-10-16T10:42:26;20.10;99.90
37544;DHT22;23385;52.038;20.322;2022-10-16T10:51:10;20.20;99.90
37544;DHT22;23385;52.038;20.322;2022-10-16T10:53:56;20.10;99.90
37544;DHT22;23385;52.038;20.322;2022-10-16T11:02:00;20.40;99.90
37544;DHT22;23385;52.038;20.322;2022-10-16T11:07:09;20.30;99.90
37544;DHT22;23385;52.038;20.322;2022-10-16T11:09:45;20.30;99.90
37544;DHT22;23385;52.038;20.322;2022-10-16T11:12:38;20.30;99.90
37544;DHT22;23385;52.038;20.322;2022-10-16T11:18:20;20.20;99.90
37544;DHT22;23385;52.038;20.322;2022-10-16T11:20:54;20.20;99.90
37544;DHT22;23385;52.038;20.322;2022-10-16T11:23:48;20.30;99.90
37544;DHT22;23385;52.038;20.322;2022-10-16T11:26:24;20.30;99.90
37544;DHT22;23385;52.038;20.322;2022-10-16T11:28:55;20.40;99.90
37544;DHT22;23385;52.038;20.322;2022-10-16T11:34:06;20.80;99.90
37544;DHT22;23385;52.038;20.322;2022-10-16T11:36:45;20.90;99.90
37544;DHT22;23385;52.038;20.322;2022-10-16T11:39:35;21.20;99.90
37544;DHT22;23385;52.038;20.322;2022-10-16T11:42:13;21.40;99.90
37544;DHT22;23385;52.038;20.322;2022-10-16T11:47:40;21.70;99.90
37544;DHT22;23385;52.038;20.322;2022-10-16T11:55:42;22.10;99.90
37544;DHT22;23385;52.038;20.322;2022-10-16T11:58:12;22.10;99.90
37544;DHT22;23385;52.038;20.322;2022-10-16T12:03:41;22.00;99.90
37544;DHT22;23385;52.038;20.322;2022-10-16T12:09:09;22.00;99.90
37544;DHT22;23385;52.038;20.322;2022-10-16T12:11:42;21.70;99.90
37544;DHT22;23385;52.038;20.322;2022-10-16T12:19:19;21.90;99.90
37544;DHT22;23385;52.038;20.322;2022-10-16T12:21:45;22.00;99.90
37544;DHT22;23385;52.038;20.322;2022-10-16T12:24:33;22.20;99.90
37544;DHT22;23385;52.038;20.322;2022-10-16T12:27:00;22.30;99.90
37544;DHT22;23385;52.038;20.322;2022-10-16T12:29:42;22.40;99.90
37544;DHT22;23385;52.038;20.322;2022-10-16T12:32:37;22.60;99.90
37544;DHT22;23385;52.038;20.322;2022-10-16T12:35:06;22.60;99.90
37544;DHT22;23385;52.038;20.322;2022-10-16T12:37:42;22.40;99.90
37544;DHT22;23385;52.038;20.322;2022-10-16T12:40:22;22.40;99.90
37544;DHT22;23385;52.038;20.322;2022-10-16T12:42:53;22.10;99.90
37544;DHT22;23385;52.038;20.322;2022-10-16T12:45:29;22.00;99.90
37544;DHT22;23385;52.038;20.322;2022-10-16T12:48:17;22.00;99.90
37544;DHT22;23385;52.038;20.322;2022-10-16T12:50:44;22.00;99.90
37544;DHT22;23385;52.038;20.322;2022-10-16T12:53:24;21.90;99.90
37544;DHT22;23385;52.038;20.322;2022-10-16T13:01:15;21.20;99.90
37544;DHT22;23385;52.038;20.322;2022-10-16T13:04:16;20.90;99.90
37544;DHT22;23385;52.038;20.322;2022-10-16T13:15:51;20.90;99.90
37544;DHT22;23385;52.038;20.322;2022-10-16T13:29:05;20.70;99.90
37544;DHT22;23385;52.038;20.322;2022-10-16T13:31:31;20.70;99.90
37544;DHT22;23385;52.038;20.322;2022-10-16T13:33:59;20.60;99.90
37544;DHT22;23385;52.038;20.322;2022-10-16T13:39:30;20.50;99.90
37544;DHT22;23385;52.038;20.322;2022-10-16T13:44:34;20.30;99.90
